createdAt,value
2023-03-21T00:00:23.236Z,180.09
2023-03-21T00:04:23.320Z,180.60
2023-03-21T00:08:23.228Z,179.89
2023-03-21T00:12:23.231Z,180.82
2023-03-21T00:16:25.937Z,179.95
2023-03-21T00:20:24.221Z,180.36
2023-03-21T00:24:23.225Z,181.39
2023-03-21T00:28:23.142Z,179.90
2023-03-21T00:32:23.090Z,180.08
2023-03-21T00:36:23.126Z,178.76
2023-03-21T00:40:29.495Z,180.63
2023-03-21T00:44:23.997Z,180.71
2023-03-21T00:48:22.991Z,180.24
2023-03-21T00:52:38.051Z,179.41
2023-03-21T00:56:23.924Z,179.62
2023-03-21T01:00:22.863Z,179.19
2023-03-21T01:04:22.873Z,179.45
2023-03-21T01:08:29.316Z,178.30
2023-03-21T01:12:23.740Z,179.41
2023-03-21T01:16:22.796Z,178.80
2023-03-21T01:20:22.677Z,178.77
2023-03-21T01:24:22.700Z,178.81
2023-03-21T01:28:22.757Z,177.62
2023-03-21T01:32:22.607Z,179.69
2023-03-21T01:36:23.883Z,177.45
2023-03-21T01:40:22.658Z,178.85
2023-03-21T01:44:22.710Z,178.26
2023-03-21T01:48:22.789Z,178.23
2023-03-21T01:52:35.274Z,178.46
2023-03-21T01:56:23.836Z,179.04
2023-03-21T02:00:22.795Z,178.27
2023-03-21T02:04:22.768Z,179.40
2023-03-21T02:08:30.567Z,179.03
2023-03-21T02:12:23.706Z,179.37
2023-03-21T02:16:22.667Z,178.29
2023-03-21T02:20:22.622Z,177.72
2023-03-21T02:24:22.610Z,177.52
2023-03-21T02:28:22.527Z,177.95
2023-03-21T02:32:34.906Z,178.13
2023-03-21T02:36:23.615Z,178.53
2023-03-21T02:40:22.551Z,177.73
2023-03-21T02:44:22.477Z,178.14
2023-03-21T02:48:29.262Z,177.16
2023-03-21T02:52:37.378Z,179.25
2023-03-21T02:56:23.418Z,179.63
2023-03-21T03:00:22.384Z,179.73
2023-03-21T03:04:22.364Z,178.90
2023-03-21T03:08:32.408Z,178.33
2023-03-21T03:12:23.230Z,178.92
2023-03-21T03:16:22.187Z,178.48
2023-03-21T03:20:22.189Z,177.24
2023-03-21T03:24:22.104Z,177.96
2023-03-21T03:28:22.114Z,178.11
2023-03-21T03:32:22.240Z,178.12
2023-03-21T03:36:31.531Z,177.49
2023-03-21T03:40:23.308Z,178.00
2023-03-21T03:44:22.312Z,176.89
2023-03-21T03:48:22.306Z,177.90
2023-03-21T03:52:22.273Z,177.64
2023-03-21T03:56:22.331Z,178.89
2023-03-21T04:00:22.498Z,178.15
2023-03-21T04:04:22.690Z,177.68
2023-03-21T04:08:22.786Z,178.58
2023-03-21T04:12:22.865Z,177.27
2023-03-21T04:16:23.106Z,176.83
2023-03-21T04:20:35.602Z,178.04
2023-03-21T04:24:24.158Z,177.66
2023-03-21T04:28:23.079Z,177.01
2023-03-21T04:32:23.069Z,177.04
2023-03-21T04:36:23.098Z,177.18
2023-03-21T04:40:23.224Z,176.73
2023-03-21T04:44:23.392Z,177.83
2023-03-21T04:48:23.601Z,174.85
2023-03-21T04:52:25.324Z,176.11
2023-03-21T04:56:23.877Z,176.84
2023-03-21T05:00:24.063Z,175.89
2023-03-21T05:04:24.206Z,173.17
2023-03-21T05:08:24.336Z,167.33
2023-03-21T05:12:24.504Z,161.39
2023-03-21T05:16:24.677Z,158.16
2023-03-21T05:20:24.765Z,152.18
2023-03-21T05:24:24.930Z,144.89
2023-03-21T05:28:25.082Z,142.96
2023-03-21T05:32:25.321Z,140.55
2023-03-21T05:36:25.418Z,138.92
2023-03-21T05:40:25.607Z,136.80
2023-03-21T05:44:25.752Z,137.65
2023-03-21T05:48:25.919Z,138.94
2023-03-21T05:52:26.100Z,138.56
2023-03-21T05:56:26.305Z,143.51
2023-03-21T06:00:26.328Z,139.03
2023-03-21T06:04:26.326Z,123.97
2023-03-21T06:08:26.458Z,120.31
2023-03-21T06:12:26.640Z,129.27
2023-03-21T06:16:26.775Z,126.79
2023-03-21T06:20:26.744Z,118.59
2023-03-21T06:24:26.739Z,113.52
2023-03-21T06:28:26.727Z,113.62
2023-03-21T06:32:26.684Z,115.08
2023-03-21T06:36:26.611Z,131.84
2023-03-21T06:40:26.637Z,130.42
2023-03-21T06:44:26.612Z,128.35
2023-03-21T06:48:26.612Z,141.57
2023-03-21T06:52:26.567Z,150.72
2023-03-21T06:56:26.512Z,157.65
2023-03-21T07:00:26.449Z,168.96
2023-03-21T07:04:26.385Z,179.11
2023-03-21T07:08:26.365Z,210.81
2023-03-21T07:12:26.319Z,247.51
2023-03-21T07:16:26.382Z,249.54
2023-03-21T07:20:26.344Z,250.00
2023-03-21T07:24:26.220Z,250.00
2023-03-21T07:28:26.227Z,249.86
2023-03-21T07:32:26.203Z,248.98
2023-03-21T07:36:26.189Z,247.23
2023-03-21T07:40:26.169Z,246.26
2023-03-21T07:44:26.249Z,216.88
2023-03-21T07:48:26.227Z,203.92
2023-03-21T07:52:26.130Z,193.21
2023-03-21T07:56:26.325Z,190.58
2023-03-21T08:00:26.104Z,188.87
2023-03-21T08:04:26.223Z,187.22
2023-03-21T08:08:25.997Z,185.63
2023-03-21T08:12:25.970Z,183.23
2023-03-21T08:16:26.017Z,183.92
2023-03-21T08:20:25.927Z,178.85
2023-03-21T08:24:26.306Z,174.26
2023-03-21T08:28:25.809Z,168.42
2023-03-21T08:32:26.246Z,164.59
2023-03-21T08:36:26.337Z,155.96
2023-03-21T08:40:26.354Z,154.07
2023-03-21T08:44:25.758Z,150.51
2023-03-21T08:48:25.767Z,145.30
2023-03-21T08:52:25.697Z,140.80
2023-03-21T08:56:25.696Z,135.52
2023-03-21T09:00:25.693Z,130.04
2023-03-21T09:04:25.732Z,128.09
2023-03-21T09:08:25.641Z,125.36
2023-03-21T09:12:25.564Z,122.41
2023-03-21T09:16:25.784Z,118.53
2023-03-21T09:20:25.906Z,118.83
2023-03-21T09:24:26.278Z,110.44
2023-03-21T09:28:26.101Z,108.01
2023-03-21T09:32:26.201Z,101.94
2023-03-21T09:36:26.426Z,84.85
2023-03-21T09:40:26.609Z,69.60
2023-03-21T09:44:29.973Z,67.44
2023-03-21T09:48:26.621Z,72.34
2023-03-21T09:52:26.812Z,78.61
2023-03-21T09:56:26.479Z,82.30
2023-03-21T10:00:26.408Z,100.89
2023-03-21T10:04:26.398Z,103.45
2023-03-21T10:08:26.370Z,104.15
2023-03-21T10:12:26.801Z,109.84
2023-03-21T10:16:26.349Z,115.56
2023-03-21T10:20:26.217Z,108.48
2023-03-21T10:24:26.826Z,108.42
2023-03-21T10:28:26.285Z,108.50
2023-03-21T10:32:26.304Z,106.26
2023-03-21T10:36:26.129Z,108.30
2023-03-21T10:40:26.322Z,101.13
2023-03-21T10:44:26.345Z,91.33
2023-03-21T10:48:26.140Z,79.73
2023-03-21T10:52:25.928Z,71.43
2023-03-21T10:56:25.913Z,59.78
2023-03-21T11:00:25.885Z,57.00
2023-03-21T11:04:25.865Z,45.91
2023-03-21T11:08:25.834Z,38.41
2023-03-21T11:12:25.759Z,29.96
2023-03-21T11:16:25.813Z,53.37
2023-03-21T11:20:25.709Z,56.72
2023-03-21T11:24:25.850Z,63.98
2023-03-21T11:28:25.692Z,63.78
2023-03-21T11:32:25.605Z,62.64
2023-03-21T11:36:25.639Z,64.10
2023-03-21T11:40:25.601Z,67.46
2023-03-21T11:44:25.523Z,71.05
2023-03-21T11:48:25.593Z,67.15
2023-03-21T11:52:25.424Z,65.56
2023-03-21T11:56:25.455Z,70.93
2023-03-21T12:00:25.429Z,72.22
2023-03-21T12:04:25.515Z,70.40
2023-03-21T12:08:25.587Z,67.74
2023-03-21T12:12:38.023Z,72.20
2023-03-21T12:16:26.657Z,71.76
2023-03-21T12:20:25.825Z,73.82
2023-03-21T12:24:25.471Z,69.07
2023-03-21T12:28:32.696Z,71.39
2023-03-21T12:32:26.470Z,72.38
2023-03-21T12:36:25.486Z,70.35
2023-03-21T12:40:25.401Z,71.61
2023-03-21T12:44:25.321Z,72.12
2023-03-21T12:48:25.373Z,73.49
2023-03-21T12:52:25.463Z,70.51
2023-03-21T12:56:25.452Z,71.17
2023-03-21T13:00:25.472Z,72.00
2023-03-21T13:04:25.365Z,67.15
2023-03-21T13:08:25.445Z,70.38
2023-03-21T13:12:25.335Z,70.20
2023-03-21T13:16:25.359Z,72.25
2023-03-21T13:20:25.261Z,70.73
2023-03-21T13:24:25.291Z,70.00
2023-03-21T13:28:25.214Z,69.61
2023-03-21T13:32:25.195Z,67.89
2023-03-21T13:36:25.090Z,69.29
2023-03-21T13:40:25.149Z,68.14
2023-03-21T13:44:25.063Z,69.11
2023-03-21T13:48:25.153Z,65.85
2023-03-21T13:52:24.942Z,66.35
2023-03-21T13:56:25.016Z,66.19
2023-03-21T14:00:24.925Z,66.50
2023-03-21T14:04:29.175Z,64.86
2023-03-21T14:08:36.795Z,64.61
2023-03-21T14:12:25.832Z,65.76
2023-03-21T14:16:24.935Z,66.32
2023-03-21T14:20:24.797Z,62.16
2023-03-21T14:24:24.640Z,63.73
2023-03-21T14:28:24.737Z,64.72
2023-03-21T14:32:24.607Z,63.87
2023-03-21T14:36:24.651Z,65.10
2023-03-21T14:40:24.552Z,62.03
2023-03-21T14:44:24.489Z,65.31
2023-03-21T14:48:24.477Z,63.84
2023-03-21T14:52:24.433Z,64.99
2023-03-21T14:56:24.420Z,64.55
2023-03-21T15:00:24.433Z,63.50
2023-03-21T15:04:24.315Z,63.59
2023-03-21T15:08:24.291Z,60.51
2023-03-21T15:12:24.229Z,62.74
2023-03-21T15:16:24.299Z,62.24
2023-03-21T15:20:24.175Z,59.98
2023-03-21T15:24:24.194Z,58.32
2023-03-21T15:28:24.164Z,59.58
2023-03-21T15:32:24.222Z,59.94
2023-03-21T15:36:24.255Z,58.75
2023-03-21T15:40:24.254Z,58.33
2023-03-21T15:44:24.332Z,58.54
2023-03-21T15:48:24.513Z,57.76
2023-03-21T15:52:24.441Z,55.81
2023-03-21T15:56:24.520Z,56.50
2023-03-21T16:00:24.590Z,55.26
2023-03-21T16:04:24.722Z,54.23
2023-03-21T16:08:24.752Z,52.50
2023-03-21T16:12:24.834Z,54.22
2023-03-21T16:16:24.958Z,51.61
2023-03-21T16:20:25.030Z,51.16
2023-03-21T16:24:25.107Z,50.69
2023-03-21T16:28:25.246Z,50.54
2023-03-21T16:32:25.383Z,49.21
2023-03-21T16:36:25.446Z,49.56
2023-03-21T16:40:25.615Z,48.87
2023-03-21T16:44:25.751Z,47.64
2023-03-21T16:48:25.929Z,46.62
2023-03-21T16:52:26.505Z,47.38
2023-03-21T16:56:26.138Z,48.84
2023-03-21T17:00:26.289Z,50.31
2023-03-21T17:04:26.519Z,50.22
2023-03-21T17:08:26.642Z,50.34
2023-03-21T17:12:26.794Z,50.30
2023-03-21T17:16:27.455Z,50.08
2023-03-21T17:20:27.171Z,50.67
2023-03-21T17:24:27.315Z,50.39
2023-03-21T17:28:27.494Z,49.78
2023-03-21T17:32:27.644Z,50.38
2023-03-21T17:36:27.878Z,50.30
2023-03-21T17:40:28.040Z,50.28
2023-03-21T17:44:28.240Z,52.44
2023-03-21T17:48:28.432Z,50.28
2023-03-21T17:52:28.634Z,51.32
2023-03-21T17:56:28.855Z,52.72
2023-03-21T18:00:29.100Z,51.59
2023-03-21T18:04:29.351Z,51.22
2023-03-21T18:08:29.731Z,52.23
2023-03-21T18:12:29.767Z,51.79
2023-03-21T18:16:29.694Z,52.17
2023-03-21T18:20:50.330Z,53.41
2023-03-21T18:24:30.584Z,54.08
2023-03-21T18:28:29.898Z,52.83
2023-03-21T18:32:29.783Z,52.36
2023-03-21T18:36:29.809Z,53.21
2023-03-21T18:40:29.716Z,52.11
2023-03-21T18:44:29.641Z,53.04
2023-03-21T18:48:31.057Z,54.20
2023-03-21T18:52:29.641Z,54.80
2023-03-21T19:00:30.676Z,55.49
2023-03-21T19:04:30.504Z,56.68
2023-03-21T19:08:29.586Z,58.18
2023-03-21T19:12:29.475Z,55.55
2023-03-21T19:16:32.709Z,50.47
2023-03-21T19:20:30.392Z,47.42
2023-03-21T19:24:29.513Z,39.91
2023-03-21T19:28:29.465Z,36.21
2023-03-21T19:32:29.415Z,31.63
2023-03-21T19:36:29.375Z,27.28
2023-03-21T19:40:29.342Z,26.01
2023-03-21T19:44:29.328Z,26.85
2023-03-21T19:48:29.365Z,27.94
2023-03-21T19:52:29.217Z,33.40
2023-03-21T19:56:31.384Z,34.37
2023-03-21T20:00:29.129Z,38.13
2023-03-21T20:04:29.107Z,39.20
2023-03-21T20:08:36.091Z,45.79
2023-03-21T20:12:30.081Z,45.27
2023-03-21T20:16:34.520Z,46.66
2023-03-21T20:20:29.974Z,47.05
2023-03-21T20:24:28.986Z,46.80
2023-03-21T20:28:29.239Z,46.45
2023-03-21T20:32:29.373Z,47.65
2023-03-21T20:36:39.760Z,44.51
2023-03-21T20:40:30.529Z,44.22
2023-03-21T20:44:59.101Z,43.64
2023-03-21T20:48:30.483Z,44.11
2023-03-21T20:56:30.388Z,40.85
2023-03-21T21:00:29.399Z,41.56
2023-03-21T21:05:03.506Z,38.75
2023-03-21T21:08:30.309Z,39.35
2023-03-21T21:12:29.282Z,39.63
2023-03-21T21:16:29.307Z,40.61
2023-03-21T21:20:29.190Z,39.88
2023-03-21T21:24:29.190Z,39.39
2023-03-21T21:28:29.129Z,40.23
2023-03-21T21:32:29.088Z,41.56
2023-03-21T21:36:29.075Z,40.20
2023-03-21T21:40:29.074Z,40.33
2023-03-21T21:44:29.079Z,42.05
2023-03-21T21:48:29.050Z,42.18
2023-03-21T21:52:29.008Z,40.28
2023-03-21T21:56:29.037Z,40.96
2023-03-21T22:00:29.032Z,39.87
2023-03-21T22:04:29.057Z,43.00
2023-03-21T22:08:29.019Z,41.17
2023-03-21T22:12:29.060Z,40.38
2023-03-21T22:16:29.122Z,39.93
2023-03-21T22:20:29.164Z,38.37
2023-03-21T22:24:29.131Z,39.10
2023-03-21T22:28:29.137Z,38.84
2023-03-21T22:32:29.195Z,38.12
2023-03-21T22:36:29.227Z,36.95
2023-03-21T22:40:29.305Z,36.68
2023-03-21T22:44:36.091Z,39.10
2023-03-21T22:48:29.297Z,42.96
2023-03-21T22:52:29.221Z,44.08
2023-03-21T22:56:29.205Z,44.11
2023-03-21T23:00:29.131Z,43.19
2023-03-21T23:04:29.141Z,46.22
2023-03-21T23:08:29.043Z,44.82
2023-03-21T23:12:29.046Z,44.11
2023-03-21T23:16:29.032Z,44.80
2023-03-21T23:20:28.993Z,45.20
2023-03-21T23:24:28.921Z,45.71
2023-03-21T23:28:28.870Z,46.70
2023-03-21T23:32:28.878Z,43.75
2023-03-21T23:36:28.820Z,45.03
2023-03-21T23:40:28.819Z,45.07
2023-03-21T23:44:28.798Z,45.36
2023-03-21T23:48:28.748Z,45.55
2023-03-21T23:52:28.770Z,44.44
2023-03-21T23:56:28.710Z,45.87
